sensor_id;sensor_type;location;lat;lon;timestamp;P1;durP1;ratioP1;P2;durP2;ratioP2
39654;SDS011;25336;59.944;11.010;2023-05-10T00:00:33;7.57;;;2.63;;
39654;SDS011;25336;59.944;11.010;2023-05-10T00:02:59;7.22;;;3.28;;
39654;SDS011;25336;59.944;11.010;2023-05-10T00:05:26;12.30;;;3.67;;
39654;SDS011;25336;59.944;11.010;2023-05-10T00:07:51;9.02;;;3.05;;
39654;SDS011;25336;59.944;11.010;2023-05-10T00:10:17;6.25;;;2.83;;
39654;SDS011;25336;59.944;11.010;2023-05-10T00:12:43;7.90;;;3.30;;
39654;SDS011;25336;59.944;11.010;2023-05-10T00:15:08;5.78;;;3.25;;
39654;SDS011;25336;59.944;11.010;2023-05-10T00:17:35;5.75;;;2.70;;
39654;SDS011;25336;59.944;11.010;2023-05-10T00:20:02;8.23;;;3.05;;
39654;SDS011;25336;59.944;11.010;2023-05-10T00:22:29;5.20;;;2.88;;
39654;SDS011;25336;59.944;11.010;2023-05-10T00:24:55;10.35;;;3.70;;
39654;SDS011;25336;59.944;11.010;2023-05-10T00:27:21;5.10;;;2.90;;
39654;SDS011;25336;59.944;11.010;2023-05-10T00:29:46;6.82;;;3.25;;
39654;SDS011;25336;59.944;11.010;2023-05-10T00:32:12;6.22;;;3.00;;
39654;SDS011;25336;59.944;11.010;2023-05-10T00:34:38;7.65;;;3.25;;
39654;SDS011;25336;59.944;11.010;2023-05-10T00:37:04;7.38;;;2.85;;
39654;SDS011;25336;59.944;11.010;2023-05-10T00:39:30;5.78;;;2.92;;
39654;SDS011;25336;59.944;11.010;2023-05-10T00:41:56;8.75;;;3.08;;
39654;SDS011;25336;59.944;11.010;2023-05-10T00:44:21;10.60;;;2.90;;
39654;SDS011;25336;59.944;11.010;2023-05-10T00:46:47;10.82;;;2.97;;
39654;SDS011;25336;59.944;11.010;2023-05-10T00:49:14;4.82;;;2.95;;
39654;SDS011;25336;59.944;11.010;2023-05-10T00:51:40;6.35;;;2.85;;
39654;SDS011;25336;59.944;11.010;2023-05-10T00:54:07;6.75;;;3.20;;
39654;SDS011;25336;59.944;11.010;2023-05-10T00:56:35;6.93;;;3.15;;
39654;SDS011;25336;59.944;11.010;2023-05-10T00:59:01;4.85;;;2.72;;
39654;SDS011;25336;59.944;11.010;2023-05-10T01:01:28;9.93;;;3.45;;
39654;SDS011;25336;59.944;11.010;2023-05-10T01:03:54;8.00;;;2.90;;
39654;SDS011;25336;59.944;11.010;2023-05-10T01:06:20;5.05;;;2.95;;
39654;SDS011;25336;59.944;11.010;2023-05-10T01:08:45;4.72;;;3.25;;
39654;SDS011;25336;59.944;11.010;2023-05-10T01:11:12;8.50;;;4.28;;
39654;SDS011;25336;59.944;11.010;2023-05-10T01:13:38;8.32;;;3.47;;
39654;SDS011;25336;59.944;11.010;2023-05-10T01:16:07;12.80;;;3.70;;
39654;SDS011;25336;59.944;11.010;2023-05-10T01:18:33;5.70;;;3.38;;
39654;SDS011;25336;59.944;11.010;2023-05-10T01:23:44;7.55;;;3.75;;
39654;SDS011;25336;59.944;11.010;2023-05-10T01:34:42;6.93;;;3.83;;
39654;SDS011;25336;59.944;11.010;2023-05-10T01:37:15;6.30;;;3.67;;
39654;SDS011;25336;59.944;11.010;2023-05-10T01:39:55;7.95;;;3.00;;
39654;SDS011;25336;59.944;11.010;2023-05-10T01:42:29;9.15;;;2.97;;
39654;SDS011;25336;59.944;11.010;2023-05-10T01:45:37;6.75;;;3.97;;
39654;SDS011;25336;59.944;11.010;2023-05-10T01:48:06;9.43;;;3.60;;
39654;SDS011;25336;59.944;11.010;2023-05-10T01:50:35;9.50;;;4.07;;
39654;SDS011;25336;59.944;11.010;2023-05-10T01:53:02;8.70;;;3.97;;
39654;SDS011;25336;59.944;11.010;2023-05-10T01:55:32;12.35;;;3.03;;
39654;SDS011;25336;59.944;11.010;2023-05-10T01:58:09;11.48;;;3.47;;
39654;SDS011;25336;59.944;11.010;2023-05-10T02:00:40;7.60;;;3.10;;
39654;SDS011;25336;59.944;11.010;2023-05-10T02:03:08;7.93;;;3.90;;
39654;SDS011;25336;59.944;11.010;2023-05-10T02:05:35;11.07;;;4.00;;
39654;SDS011;25336;59.944;11.010;2023-05-10T02:08:03;8.77;;;3.67;;
39654;SDS011;25336;59.944;11.010;2023-05-10T02:10:34;8.27;;;3.67;;
39654;SDS011;25336;59.944;11.010;2023-05-10T02:13:00;4.75;;;3.00;;
39654;SDS011;25336;59.944;11.010;2023-05-10T02:15:27;8.48;;;3.53;;
39654;SDS011;25336;59.944;11.010;2023-05-10T02:17:54;10.60;;;3.70;;
39654;SDS011;25336;59.944;11.010;2023-05-10T02:20:21;7.35;;;3.80;;
39654;SDS011;25336;59.944;11.010;2023-05-10T02:22:49;9.02;;;3.97;;
39654;SDS011;25336;59.944;11.010;2023-05-10T02:25:17;6.68;;;3.80;;
39654;SDS011;25336;59.944;11.010;2023-05-10T02:27:46;12.15;;;4.25;;
39654;SDS011;25336;59.944;11.010;2023-05-10T02:30:13;14.32;;;4.47;;
39654;SDS011;25336;59.944;11.010;2023-05-10T02:32:39;9.80;;;3.70;;
39654;SDS011;25336;59.944;11.010;2023-05-10T02:35:06;10.57;;;4.00;;
39654;SDS011;25336;59.944;11.010;2023-05-10T02:37:35;7.45;;;3.55;;
39654;SDS011;25336;59.944;11.010;2023-05-10T02:40:02;11.35;;;4.40;;
39654;SDS011;25336;59.944;11.010;2023-05-10T02:42:29;10.90;;;3.75;;
39654;SDS011;25336;59.944;11.010;2023-05-10T02:44:59;11.55;;;4.50;;
39654;SDS011;25336;59.944;11.010;2023-05-10T02:47:27;12.52;;;4.00;;
39654;SDS011;25336;59.944;11.010;2023-05-10T02:49:54;17.92;;;5.85;;
39654;SDS011;25336;59.944;11.010;2023-05-10T02:52:23;12.95;;;3.97;;
39654;SDS011;25336;59.944;11.010;2023-05-10T02:54:54;11.18;;;4.38;;
39654;SDS011;25336;59.944;11.010;2023-05-10T02:57:31;6.95;;;3.47;;
39654;SDS011;25336;59.944;11.010;2023-05-10T02:59:58;7.03;;;3.80;;
39654;SDS011;25336;59.944;11.010;2023-05-10T03:02:25;8.13;;;4.15;;
39654;SDS011;25336;59.944;11.010;2023-05-10T03:04:51;18.48;;;4.30;;
39654;SDS011;25336;59.944;11.010;2023-05-10T03:07:17;7.88;;;3.70;;
39654;SDS011;25336;59.944;11.010;2023-05-10T03:09:46;27.77;;;4.55;;
39654;SDS011;25336;59.944;11.010;2023-05-10T03:20:21;8.40;;;4.20;;
39654;SDS011;25336;59.944;11.010;2023-05-10T03:22:53;8.82;;;3.85;;
39654;SDS011;25336;59.944;11.010;2023-05-10T03:25:25;7.35;;;4.13;;
39654;SDS011;25336;59.944;11.010;2023-05-10T03:27:51;8.70;;;3.95;;
39654;SDS011;25336;59.944;11.010;2023-05-10T03:30:17;11.32;;;3.65;;
39654;SDS011;25336;59.944;11.010;2023-05-10T03:32:44;6.43;;;4.05;;
39654;SDS011;25336;59.944;11.010;2023-05-10T03:35:10;11.73;;;4.00;;
39654;SDS011;25336;59.944;11.010;2023-05-10T03:37:38;10.48;;;4.45;;
39654;SDS011;25336;59.944;11.010;2023-05-10T03:40:04;7.93;;;3.83;;
39654;SDS011;25336;59.944;11.010;2023-05-10T03:42:30;15.48;;;4.60;;
39654;SDS011;25336;59.944;11.010;2023-05-10T03:44:55;20.15;;;6.25;;
39654;SDS011;25336;59.944;11.010;2023-05-10T03:47:21;15.27;;;4.10;;
39654;SDS011;25336;59.944;11.010;2023-05-10T03:49:47;13.85;;;4.93;;
39654;SDS011;25336;59.944;11.010;2023-05-10T03:52:12;9.43;;;3.90;;
39654;SDS011;25336;59.944;11.010;2023-05-10T03:54:38;12.77;;;4.72;;
39654;SDS011;25336;59.944;11.010;2023-05-10T03:57:04;17.27;;;4.75;;
39654;SDS011;25336;59.944;11.010;2023-05-10T03:59:29;16.73;;;4.32;;
39654;SDS011;25336;59.944;11.010;2023-05-10T04:01:55;11.52;;;3.80;;
39654;SDS011;25336;59.944;11.010;2023-05-10T04:04:21;8.95;;;4.38;;
39654;SDS011;25336;59.944;11.010;2023-05-10T04:06:48;7.68;;;3.45;;
39654;SDS011;25336;59.944;11.010;2023-05-10T04:09:13;14.55;;;4.50;;
39654;SDS011;25336;59.944;11.010;2023-05-10T04:11:39;5.78;;;4.55;;
39654;SDS011;25336;59.944;11.010;2023-05-10T04:14:05;11.60;;;4.15;;
39654;SDS011;25336;59.944;11.010;2023-05-10T04:16:30;11.77;;;4.70;;
39654;SDS011;25336;59.944;11.010;2023-05-10T04:18:56;9.25;;;3.70;;
39654;SDS011;25336;59.944;11.010;2023-05-10T04:21:22;21.50;;;5.30;;
39654;SDS011;25336;59.944;11.010;2023-05-10T04:23:48;7.95;;;3.65;;
39654;SDS011;25336;59.944;11.010;2023-05-10T04:26:13;7.93;;;4.00;;
39654;SDS011;25336;59.944;11.010;2023-05-10T04:28:39;15.00;;;4.28;;
39654;SDS011;25336;59.944;11.010;2023-05-10T04:31:05;7.57;;;3.65;;
39654;SDS011;25336;59.944;11.010;2023-05-10T04:33:32;8.80;;;4.20;;
39654;SDS011;25336;59.944;11.010;2023-05-10T04:35:59;7.78;;;3.75;;
39654;SDS011;25336;59.944;11.010;2023-05-10T04:38:24;13.82;;;4.10;;
39654;SDS011;25336;59.944;11.010;2023-05-10T04:40:50;11.52;;;4.15;;
39654;SDS011;25336;59.944;11.010;2023-05-10T04:43:16;7.55;;;3.90;;
39654;SDS011;25336;59.944;11.010;2023-05-10T04:45:42;7.93;;;3.83;;
39654;SDS011;25336;59.944;11.010;2023-05-10T04:48:08;7.45;;;4.03;;
39654;SDS011;25336;59.944;11.010;2023-05-10T04:50:34;9.52;;;4.40;;
39654;SDS011;25336;59.944;11.010;2023-05-10T04:53:00;9.98;;;4.45;;
39654;SDS011;25336;59.944;11.010;2023-05-10T04:55:25;6.40;;;3.55;;
39654;SDS011;25336;59.944;11.010;2023-05-10T04:57:51;14.07;;;4.50;;
39654;SDS011;25336;59.944;11.010;2023-05-10T05:00:18;8.68;;;3.58;;
39654;SDS011;25336;59.944;11.010;2023-05-10T05:02:44;12.10;;;4.05;;
39654;SDS011;25336;59.944;11.010;2023-05-10T05:05:13;11.93;;;3.83;;
39654;SDS011;25336;59.944;11.010;2023-05-10T05:07:38;13.60;;;4.05;;
39654;SDS011;25336;59.944;11.010;2023-05-10T05:10:05;8.65;;;3.90;;
39654;SDS011;25336;59.944;11.010;2023-05-10T05:12:32;6.22;;;3.70;;
39654;SDS011;25336;59.944;11.010;2023-05-10T05:14:57;12.10;;;3.63;;
39654;SDS011;25336;59.944;11.010;2023-05-10T05:17:23;10.77;;;4.03;;
39654;SDS011;25336;59.944;11.010;2023-05-10T05:19:49;12.52;;;3.70;;
39654;SDS011;25336;59.944;11.010;2023-05-10T05:22:14;12.77;;;4.13;;
39654;SDS011;25336;59.944;11.010;2023-05-10T05:24:40;5.60;;;3.35;;
39654;SDS011;25336;59.944;11.010;2023-05-10T05:27:06;9.63;;;3.38;;
39654;SDS011;25336;59.944;11.010;2023-05-10T05:29:31;15.23;;;4.22;;
39654;SDS011;25336;59.944;11.010;2023-05-10T05:31:57;10.13;;;5.30;;
39654;SDS011;25336;59.944;11.010;2023-05-10T05:34:23;6.03;;;3.92;;
39654;SDS011;25336;59.944;11.010;2023-05-10T05:36:49;9.23;;;3.58;;
39654;SDS011;25336;59.944;11.010;2023-05-10T05:39:15;8.93;;;3.50;;
39654;SDS011;25336;59.944;11.010;2023-05-10T05:41:40;8.82;;;4.32;;
39654;SDS011;25336;59.944;11.010;2023-05-10T05:44:06;7.13;;;3.60;;
39654;SDS011;25336;59.944;11.010;2023-05-10T05:46:31;8.15;;;3.42;;
39654;SDS011;25336;59.944;11.010;2023-05-10T05:48:57;5.72;;;3.35;;
39654;SDS011;25336;59.944;11.010;2023-05-10T05:51:23;8.80;;;3.53;;
39654;SDS011;25336;59.944;11.010;2023-05-10T05:53:48;3.22;;;2.60;;
39654;SDS011;25336;59.944;11.010;2023-05-10T05:56:14;5.20;;;2.70;;
39654;SDS011;25336;59.944;11.010;2023-05-10T05:58:39;5.90;;;3.15;;
39654;SDS011;25336;59.944;11.010;2023-05-10T06:01:05;4.47;;;3.45;;
39654;SDS011;25336;59.944;11.010;2023-05-10T06:03:30;6.20;;;3.25;;
39654;SDS011;25336;59.944;11.010;2023-05-10T06:05:56;7.43;;;3.97;;
39654;SDS011;25336;59.944;11.010;2023-05-10T06:08:21;8.18;;;3.45;;
39654;SDS011;25336;59.944;11.010;2023-05-10T06:10:47;10.95;;;3.15;;
39654;SDS011;25336;59.944;11.010;2023-05-10T06:13:13;7.75;;;2.70;;
39654;SDS011;25336;59.944;11.010;2023-05-10T06:15:39;6.45;;;3.05;;
39654;SDS011;25336;59.944;11.010;2023-05-10T06:18:04;4.38;;;2.85;;
39654;SDS011;25336;59.944;11.010;2023-05-10T06:20:30;8.93;;;3.22;;
39654;SDS011;25336;59.944;11.010;2023-05-10T06:22:56;5.82;;;2.92;;
39654;SDS011;25336;59.944;11.010;2023-05-10T06:25:23;4.32;;;2.92;;
39654;SDS011;25336;59.944;11.010;2023-05-10T06:27:48;5.55;;;2.58;;
39654;SDS011;25336;59.944;11.010;2023-05-10T06:30:14;6.93;;;3.05;;
39654;SDS011;25336;59.944;11.010;2023-05-10T06:32:40;5.03;;;2.70;;
39654;SDS011;25336;59.944;11.010;2023-05-10T06:35:06;4.05;;;2.58;;
39654;SDS011;25336;59.944;11.010;2023-05-10T06:37:32;5.15;;;2.58;;
39654;SDS011;25336;59.944;11.010;2023-05-10T06:39:59;6.57;;;2.63;;
39654;SDS011;25336;59.944;11.010;2023-05-10T06:42:25;6.55;;;2.63;;
39654;SDS011;25336;59.944;11.010;2023-05-10T06:44:52;4.93;;;2.70;;
39654;SDS011;25336;59.944;11.010;2023-05-10T06:47:18;5.18;;;2.60;;
39654;SDS011;25336;59.944;11.010;2023-05-10T06:49:43;3.15;;;2.60;;
39654;SDS011;25336;59.944;11.010;2023-05-10T06:52:09;4.78;;;2.90;;
39654;SDS011;25336;59.944;11.010;2023-05-10T06:54:34;3.90;;;2.58;;
39654;SDS011;25336;59.944;11.010;2023-05-10T06:57:00;5.45;;;2.67;;
39654;SDS011;25336;59.944;11.010;2023-05-10T06:59:28;5.68;;;3.05;;
39654;SDS011;25336;59.944;11.010;2023-05-10T07:01:53;6.60;;;3.42;;
39654;SDS011;25336;59.944;11.010;2023-05-10T07:04:19;4.93;;;2.72;;
39654;SDS011;25336;59.944;11.010;2023-05-10T07:06:44;4.35;;;2.90;;
39654;SDS011;25336;59.944;11.010;2023-05-10T07:09:11;3.67;;;3.00;;
39654;SDS011;25336;59.944;11.010;2023-05-10T07:11:38;2.88;;;2.50;;
39654;SDS011;25336;59.944;11.010;2023-05-10T07:14:03;6.15;;;2.95;;
39654;SDS011;25336;59.944;11.010;2023-05-10T07:16:30;5.10;;;3.35;;
39654;SDS011;25336;59.944;11.010;2023-05-10T07:18:55;4.97;;;2.53;;
39654;SDS011;25336;59.944;11.010;2023-05-10T07:21:21;3.97;;;2.67;;
39654;SDS011;25336;59.944;11.010;2023-05-10T07:23:49;6.85;;;2.70;;
39654;SDS011;25336;59.944;11.010;2023-05-10T07:26:14;3.05;;;2.75;;
39654;SDS011;25336;59.944;11.010;2023-05-10T07:28:40;2.72;;;2.45;;
39654;SDS011;25336;59.944;11.010;2023-05-10T07:31:06;4.22;;;2.72;;
39654;SDS011;25336;59.944;11.010;2023-05-10T07:33:32;2.85;;;2.53;;
39654;SDS011;25336;59.944;11.010;2023-05-10T07:35:57;4.28;;;2.75;;
39654;SDS011;25336;59.944;11.010;2023-05-10T07:38:23;5.00;;;2.63;;
39654;SDS011;25336;59.944;11.010;2023-05-10T07:40:48;5.40;;;2.78;;
39654;SDS011;25336;59.944;11.010;2023-05-10T07:43:14;6.70;;;2.85;;
39654;SDS011;25336;59.944;11.010;2023-05-10T07:45:39;9.60;;;2.80;;
39654;SDS011;25336;59.944;11.010;2023-05-10T07:48:05;4.82;;;2.85;;
39654;SDS011;25336;59.944;11.010;2023-05-10T07:50:30;4.72;;;2.70;;
39654;SDS011;25336;59.944;11.010;2023-05-10T07:52:56;2.80;;;2.40;;
39654;SDS011;25336;59.944;11.010;2023-05-10T07:55:22;5.47;;;2.80;;
39654;SDS011;25336;59.944;11.010;2023-05-10T07:57:47;3.50;;;2.53;;
39654;SDS011;25336;59.944;11.010;2023-05-10T08:00:13;5.40;;;2.60;;
39654;SDS011;25336;59.944;11.010;2023-05-10T08:02:42;3.47;;;2.25;;
39654;SDS011;25336;59.944;11.010;2023-05-10T08:05:08;4.10;;;2.58;;
39654;SDS011;25336;59.944;11.010;2023-05-10T08:07:34;5.13;;;2.88;;
39654;SDS011;25336;59.944;11.010;2023-05-10T08:10:00;4.28;;;2.50;;
39654;SDS011;25336;59.944;11.010;2023-05-10T08:12:26;3.83;;;2.45;;
39654;SDS011;25336;59.944;11.010;2023-05-10T08:14:52;4.03;;;2.60;;
39654;SDS011;25336;59.944;11.010;2023-05-10T08:17:18;3.33;;;2.58;;
39654;SDS011;25336;59.944;11.010;2023-05-10T08:19:43;2.63;;;2.40;;
39654;SDS011;25336;59.944;11.010;2023-05-10T08:22:09;7.35;;;2.75;;
39654;SDS011;25336;59.944;11.010;2023-05-10T08:24:35;6.68;;;3.05;;
39654;SDS011;25336;59.944;11.010;2023-05-10T08:27:03;8.02;;;2.55;;
39654;SDS011;25336;59.944;11.010;2023-05-10T08:29:35;6.32;;;2.90;;
39654;SDS011;25336;59.944;11.010;2023-05-10T08:32:01;5.32;;;2.97;;
39654;SDS011;25336;59.944;11.010;2023-05-10T08:34:26;3.17;;;2.58;;
39654;SDS011;25336;59.944;11.010;2023-05-10T08:36:52;9.57;;;3.15;;
39654;SDS011;25336;59.944;11.010;2023-05-10T08:39:18;8.93;;;3.03;;
39654;SDS011;25336;59.944;11.010;2023-05-10T08:41:44;5.35;;;2.65;;
39654;SDS011;25336;59.944;11.010;2023-05-10T08:44:11;4.18;;;2.33;;
39654;SDS011;25336;59.944;11.010;2023-05-10T08:46:37;3.10;;;2.80;;
39654;SDS011;25336;59.944;11.010;2023-05-10T08:49:09;8.02;;;2.63;;
39654;SDS011;25336;59.944;11.010;2023-05-10T08:51:43;5.78;;;2.67;;
39654;SDS011;25336;59.944;11.010;2023-05-10T08:54:12;7.28;;;3.13;;
39654;SDS011;25336;59.944;11.010;2023-05-10T08:56:38;8.13;;;2.97;;
39654;SDS011;25336;59.944;11.010;2023-05-10T08:59:04;5.45;;;3.35;;
39654;SDS011;25336;59.944;11.010;2023-05-10T09:01:30;3.55;;;2.67;;
39654;SDS011;25336;59.944;11.010;2023-05-10T09:03:57;4.85;;;2.60;;
39654;SDS011;25336;59.944;11.010;2023-05-10T09:06:23;7.00;;;2.70;;
39654;SDS011;25336;59.944;11.010;2023-05-10T09:08:49;3.88;;;2.60;;
39654;SDS011;25336;59.944;11.010;2023-05-10T09:11:15;5.85;;;2.83;;
39654;SDS011;25336;59.944;11.010;2023-05-10T09:13:42;4.10;;;2.83;;
39654;SDS011;25336;59.944;11.010;2023-05-10T09:16:08;8.05;;;3.20;;
39654;SDS011;25336;59.944;11.010;2023-05-10T09:18:34;3.70;;;2.85;;
39654;SDS011;25336;59.944;11.010;2023-05-10T09:21:00;3.60;;;2.45;;
39654;SDS011;25336;59.944;11.010;2023-05-10T09:23:25;3.00;;;2.55;;
39654;SDS011;25336;59.944;11.010;2023-05-10T09:26:05;2.80;;;2.50;;
39654;SDS011;25336;59.944;11.010;2023-05-10T09:28:49;3.03;;;2.55;;
39654;SDS011;25336;59.944;11.010;2023-05-10T09:31:17;9.18;;;2.33;;
39654;SDS011;25336;59.944;11.010;2023-05-10T09:33:43;5.75;;;2.78;;
39654;SDS011;25336;59.944;11.010;2023-05-10T09:36:10;4.75;;;2.50;;
39654;SDS011;25336;59.944;11.010;2023-05-10T09:41:19;3.42;;;2.38;;
39654;SDS011;25336;59.944;11.010;2023-05-10T09:43:48;4.78;;;2.75;;
39654;SDS011;25336;59.944;11.010;2023-05-10T09:46:15;4.78;;;2.60;;
39654;SDS011;25336;59.944;11.010;2023-05-10T09:48:42;3.63;;;2.70;;
39654;SDS011;25336;59.944;11.010;2023-05-10T09:51:23;4.53;;;2.60;;
39654;SDS011;25336;59.944;11.010;2023-05-10T09:56:40;4.78;;;2.78;;
39654;SDS011;25336;59.944;11.010;2023-05-10T09:59:10;3.95;;;2.75;;
39654;SDS011;25336;59.944;11.010;2023-05-10T10:01:37;6.32;;;2.90;;
39654;SDS011;25336;59.944;11.010;2023-05-10T10:04:06;6.35;;;2.58;;
39654;SDS011;25336;59.944;11.010;2023-05-10T10:06:37;2.85;;;2.50;;
39654;SDS011;25336;59.944;11.010;2023-05-10T10:09:04;8.40;;;2.92;;
39654;SDS011;25336;59.944;11.010;2023-05-10T10:11:31;3.28;;;2.45;;
39654;SDS011;25336;59.944;11.010;2023-05-10T10:14:00;4.15;;;2.58;;
39654;SDS011;25336;59.944;11.010;2023-05-10T10:16:26;4.95;;;2.30;;
39654;SDS011;25336;59.944;11.010;2023-05-10T10:18:54;15.48;;;3.30;;
39654;SDS011;25336;59.944;11.010;2023-05-10T10:21:20;6.03;;;2.45;;
39654;SDS011;25336;59.944;11.010;2023-05-10T10:23:47;4.38;;;2.60;;
39654;SDS011;25336;59.944;11.010;2023-05-10T10:26:13;2.20;;;2.00;;
39654;SDS011;25336;59.944;11.010;2023-05-10T10:28:47;4.47;;;2.55;;
39654;SDS011;25336;59.944;11.010;2023-05-10T10:33:59;3.47;;;2.30;;
39654;SDS011;25336;59.944;11.010;2023-05-10T10:36:31;4.20;;;2.30;;
39654;SDS011;25336;59.944;11.010;2023-05-10T10:38:59;7.43;;;2.47;;
39654;SDS011;25336;59.944;11.010;2023-05-10T10:41:33;2.95;;;2.47;;
39654;SDS011;25336;59.944;11.010;2023-05-10T10:52:26;6.88;;;2.70;;
39654;SDS011;25336;59.944;11.010;2023-05-10T11:05:46;6.53;;;2.55;;
39654;SDS011;25336;59.944;11.010;2023-05-10T11:08:41;3.92;;;2.42;;
39654;SDS011;25336;59.944;11.010;2023-05-10T11:11:10;6.50;;;2.30;;
39654;SDS011;25336;59.944;11.010;2023-05-10T11:13:43;5.10;;;2.15;;
39654;SDS011;25336;59.944;11.010;2023-05-10T11:18:37;4.43;;;2.30;;
39654;SDS011;25336;59.944;11.010;2023-05-10T11:21:03;3.35;;;2.30;;
39654;SDS011;25336;59.944;11.010;2023-05-10T11:25:58;2.25;;;2.05;;
39654;SDS011;25336;59.944;11.010;2023-05-10T11:28:26;2.65;;;1.98;;
39654;SDS011;25336;59.944;11.010;2023-05-10T11:30:52;4.68;;;2.20;;
39654;SDS011;25336;59.944;11.010;2023-05-10T11:33:19;3.88;;;2.08;;
39654;SDS011;25336;59.944;11.010;2023-05-10T11:35:45;8.48;;;2.50;;
39654;SDS011;25336;59.944;11.010;2023-05-10T11:38:12;7.97;;;2.20;;
39654;SDS011;25336;59.944;11.010;2023-05-10T11:40:38;4.35;;;2.30;;
39654;SDS011;25336;59.944;11.010;2023-05-10T11:43:05;6.05;;;3.40;;
39654;SDS011;25336;59.944;11.010;2023-05-10T11:45:35;8.35;;;2.45;;
39654;SDS011;25336;59.944;11.010;2023-05-10T11:48:01;3.85;;;2.38;;
39654;SDS011;25336;59.944;11.010;2023-05-10T11:50:27;2.38;;;2.10;;
39654;SDS011;25336;59.944;11.010;2023-05-10T11:52:53;3.28;;;2.22;;
39654;SDS011;25336;59.944;11.010;2023-05-10T11:55:20;3.97;;;2.38;;
39654;SDS011;25336;59.944;11.010;2023-05-10T11:57:46;2.65;;;2.22;;
39654;SDS011;25336;59.944;11.010;2023-05-10T12:00:12;2.08;;;1.88;;
39654;SDS011;25336;59.944;11.010;2023-05-10T12:02:39;2.22;;;2.08;;
39654;SDS011;25336;59.944;11.010;2023-05-10T12:05:05;10.80;;;3.35;;
39654;SDS011;25336;59.944;11.010;2023-05-10T12:07:31;3.08;;;2.10;;
39654;SDS011;25336;59.944;11.010;2023-05-10T12:12:35;3.63;;;2.15;;
39654;SDS011;25336;59.944;11.010;2023-05-10T12:15:03;5.68;;;2.28;;
39654;SDS011;25336;59.944;11.010;2023-05-10T12:17:29;5.63;;;2.13;;
39654;SDS011;25336;59.944;11.010;2023-05-10T12:19:58;5.15;;;2.75;;
39654;SDS011;25336;59.944;11.010;2023-05-10T12:22:37;4.10;;;2.50;;
39654;SDS011;25336;59.944;11.010;2023-05-10T12:25:03;3.97;;;2.42;;
39654;SDS011;25336;59.944;11.010;2023-05-10T12:27:32;4.28;;;2.25;;
39654;SDS011;25336;59.944;11.010;2023-05-10T12:29:59;5.15;;;2.13;;
39654;SDS011;25336;59.944;11.010;2023-05-10T12:32:37;3.20;;;2.17;;
39654;SDS011;25336;59.944;11.010;2023-05-10T12:35:06;2.63;;;2.15;;
39654;SDS011;25336;59.944;11.010;2023-05-10T12:37:32;3.42;;;2.80;;
39654;SDS011;25336;59.944;11.010;2023-05-10T12:40:03;4.22;;;2.55;;
39654;SDS011;25336;59.944;11.010;2023-05-10T12:42:33;2.35;;;2.13;;
39654;SDS011;25336;59.944;11.010;2023-05-10T12:45:00;4.65;;;2.20;;
39654;SDS011;25336;59.944;11.010;2023-05-10T12:47:26;9.27;;;2.95;;
39654;SDS011;25336;59.944;11.010;2023-05-10T12:49:52;2.85;;;2.53;;
39654;SDS011;25336;59.944;11.010;2023-05-10T12:52:17;3.30;;;2.25;;
39654;SDS011;25336;59.944;11.010;2023-05-10T12:54:43;17.85;;;2.67;;
39654;SDS011;25336;59.944;11.010;2023-05-10T12:57:09;4.03;;;2.72;;
39654;SDS011;25336;59.944;11.010;2023-05-10T12:59:35;3.80;;;2.90;;
39654;SDS011;25336;59.944;11.010;2023-05-10T13:02:00;6.75;;;2.42;;
39654;SDS011;25336;59.944;11.010;2023-05-10T13:04:26;6.53;;;2.80;;
39654;SDS011;25336;59.944;11.010;2023-05-10T13:06:52;3.45;;;2.47;;
39654;SDS011;25336;59.944;11.010;2023-05-10T13:09:17;4.07;;;2.92;;
39654;SDS011;25336;59.944;11.010;2023-05-10T13:11:43;3.65;;;3.00;;
39654;SDS011;25336;59.944;11.010;2023-05-10T13:14:10;3.20;;;2.30;;
39654;SDS011;25336;59.944;11.010;2023-05-10T13:16:35;6.40;;;2.40;;
39654;SDS011;25336;59.944;11.010;2023-05-10T13:19:01;3.97;;;2.47;;
39654;SDS011;25336;59.944;11.010;2023-05-10T13:21:28;4.65;;;2.63;;
39654;SDS011;25336;59.944;11.010;2023-05-10T13:23:53;8.98;;;2.80;;
39654;SDS011;25336;59.944;11.010;2023-05-10T13:26:19;8.85;;;3.00;;
39654;SDS011;25336;59.944;11.010;2023-05-10T13:28:45;6.28;;;2.70;;
39654;SDS011;25336;59.944;11.010;2023-05-10T13:31:10;4.82;;;2.72;;
39654;SDS011;25336;59.944;11.010;2023-05-10T13:33:36;5.53;;;2.80;;
39654;SDS011;25336;59.944;11.010;2023-05-10T13:36:02;4.30;;;3.30;;
39654;SDS011;25336;59.944;11.010;2023-05-10T13:38:27;7.30;;;2.60;;
39654;SDS011;25336;59.944;11.010;2023-05-10T13:40:53;9.00;;;2.70;;
39654;SDS011;25336;59.944;11.010;2023-05-10T13:43:19;4.32;;;2.88;;
39654;SDS011;25336;59.944;11.010;2023-05-10T13:45:44;3.70;;;2.42;;
39654;SDS011;25336;59.944;11.010;2023-05-10T13:48:10;4.05;;;2.65;;
39654;SDS011;25336;59.944;11.010;2023-05-10T13:50:36;6.07;;;2.70;;
39654;SDS011;25336;59.944;11.010;2023-05-10T13:53:01;4.55;;;2.55;;
39654;SDS011;25336;59.944;11.010;2023-05-10T13:55:27;13.65;;;3.08;;
39654;SDS011;25336;59.944;11.010;2023-05-10T13:57:53;7.93;;;2.88;;
39654;SDS011;25336;59.944;11.010;2023-05-10T14:00:19;4.15;;;2.28;;
39654;SDS011;25336;59.944;11.010;2023-05-10T14:02:44;4.35;;;2.60;;
39654;SDS011;25336;59.944;11.010;2023-05-10T14:05:10;8.45;;;2.85;;
39654;SDS011;25336;59.944;11.010;2023-05-10T14:07:36;5.53;;;2.75;;
39654;SDS011;25336;59.944;11.010;2023-05-10T14:10:01;4.65;;;2.92;;
39654;SDS011;25336;59.944;11.010;2023-05-10T14:12:27;8.68;;;2.78;;
39654;SDS011;25336;59.944;11.010;2023-05-10T14:14:53;4.55;;;2.75;;
39654;SDS011;25336;59.944;11.010;2023-05-10T14:17:18;11.70;;;3.08;;
39654;SDS011;25336;59.944;11.010;2023-05-10T14:19:44;4.90;;;2.50;;
39654;SDS011;25336;59.944;11.010;2023-05-10T14:22:10;3.58;;;2.40;;
39654;SDS011;25336;59.944;11.010;2023-05-10T14:24:35;3.95;;;2.55;;
39654;SDS011;25336;59.944;11.010;2023-05-10T14:27:01;8.60;;;2.50;;
39654;SDS011;25336;59.944;11.010;2023-05-10T14:29:26;4.05;;;2.88;;
39654;SDS011;25336;59.944;11.010;2023-05-10T14:31:52;5.78;;;2.50;;
39654;SDS011;25336;59.944;11.010;2023-05-10T14:34:18;2.97;;;2.67;;
39654;SDS011;25336;59.944;11.010;2023-05-10T14:36:43;4.28;;;2.78;;
39654;SDS011;25336;59.944;11.010;2023-05-10T14:39:09;4.40;;;2.58;;
39654;SDS011;25336;59.944;11.010;2023-05-10T14:41:37;3.50;;;2.70;;
39654;SDS011;25336;59.944;11.010;2023-05-10T14:44:05;5.15;;;2.30;;
39654;SDS011;25336;59.944;11.010;2023-05-10T14:46:31;2.95;;;1.95;;
39654;SDS011;25336;59.944;11.010;2023-05-10T14:48:57;2.80;;;2.45;;
39654;SDS011;25336;59.944;11.010;2023-05-10T14:51:22;7.35;;;2.88;;
39654;SDS011;25336;59.944;11.010;2023-05-10T14:53:48;6.03;;;2.40;;
39654;SDS011;25336;59.944;11.010;2023-05-10T14:56:16;4.10;;;2.25;;
39654;SDS011;25336;59.944;11.010;2023-05-10T14:58:42;5.32;;;3.10;;
39654;SDS011;25336;59.944;11.010;2023-05-10T15:01:08;3.05;;;2.85;;
39654;SDS011;25336;59.944;11.010;2023-05-10T15:03:33;2.88;;;2.53;;
39654;SDS011;25336;59.944;11.010;2023-05-10T15:05:59;5.03;;;3.05;;
39654;SDS011;25336;59.944;11.010;2023-05-10T15:08:24;4.35;;;3.10;;
39654;SDS011;25336;59.944;11.010;2023-05-10T15:10:50;3.80;;;2.80;;
39654;SDS011;25336;59.944;11.010;2023-05-10T15:13:16;4.85;;;2.67;;
39654;SDS011;25336;59.944;11.010;2023-05-10T15:15:42;3.17;;;1.85;;
39654;SDS011;25336;59.944;11.010;2023-05-10T15:18:10;6.13;;;3.05;;
39654;SDS011;25336;59.944;11.010;2023-05-10T15:20:36;4.85;;;2.90;;
39654;SDS011;25336;59.944;11.010;2023-05-10T15:23:01;8.02;;;3.13;;
39654;SDS011;25336;59.944;11.010;2023-05-10T15:25:28;3.88;;;2.83;;